Time;durP1;ratioP1;P1;durP2;ratioP2;P2;SDS_P1;SDS_P2;PMS_P1;PMS_P2;Temp;Humidity;BMP_temperature;BMP_pressure;BME280_temperature;BME280_humidity;BME280_pressure;Samples;Min_cycle;Max_cycle;Signal;HPM_P1;HPM_P2
2022/11/01 00:01:56;;;;;;;6.30;5.45;;;;;;;5.37;100.00;98661.12;1713779;82;20892;-56
2022/11/01 00:04:23;;;;;;;6.42;5.72;;;;;;;5.40;100.00;98663.30;1714333;83;20932;-56
2022/11/01 00:06:51;;;;;;;7.97;6.78;;;;;;;5.42;100.00;98665.70;1716098;82;20912;-56
2022/11/01 00:09:18;;;;;;;8.18;6.20;;;;;;;5.41;100.00;98663.59;1715028;82;21071;-56
2022/11/01 00:11:45;;;;;;;6.80;5.97;;;;;;;5.38;100.00;98659.27;1714287;83;21133;-56
2022/11/01 00:14:14;;;;;;;7.53;5.17;;;;;;;5.36;100.00;98660.85;1716404;82;21202;-57
2022/11/01 00:16:41;;;;;;;6.75;6.03;;;;;;;5.36;100.00;98667.49;1712156;82;21023;-56
2022/11/01 00:19:09;;;;;;;6.65;5.87;;;;;;;5.34;100.00;98672.25;1717703;82;20964;-56
2022/11/01 00:21:36;;;;;;;7.53;6.22;;;;;;;5.31;100.00;98670.06;1715058;82;21034;-56
2022/11/01 00:24:04;;;;;;;6.67;5.75;;;;;;;5.30;100.00;98669.77;1715544;82;21164;-56
2022/11/01 00:26:32;;;;;;;7.47;5.45;;;;;;;5.27;100.00;98661.48;1716739;82;20936;-57
2022/11/01 00:28:59;;;;;;;11.33;6.62;;;;;;;5.25;100.00;98660.37;1714843;82;22231;-56
2022/11/01 00:31:26;;;;;;;16.27;6.50;;;;;;;5.20;100.00;98657.66;1708334;82;20920;-57
2022/11/01 00:33:52;;;;;;;15.25;6.15;;;;;;;5.19;100.00;98657.88;1714853;82;20998;-56
2022/11/01 00:36:19;;;;;;;9.23;6.12;;;;;;;5.18;100.00;98663.70;1714360;83;22100;-56
2022/11/01 00:38:52;;;;;;;10.50;5.90;;;;;;;5.17;100.00;98656.80;1715726;82;20923;-56
2022/11/01 00:41:23;;;;;;;9.05;6.33;;;;;;;5.17;100.00;98655.47;1714854;82;20979;-56
2022/11/01 00:43:48;;;;;;;8.83;6.95;;;;;;;5.15;100.00;98652.77;1712364;82;21105;-56
2022/11/01 00:46:15;;;;;;;10.53;7.00;;;;;;;5.12;100.00;98657.22;1711574;82;21046;-56
2022/11/01 00:48:42;;;;;;;19.77;7.30;;;;;;;5.10;100.00;98657.47;1713796;82;21099;-56
2022/11/01 00:51:09;;;;;;;8.68;6.75;;;;;;;5.11;100.00;98652.42;1715173;83;21586;-56
2022/11/01 00:53:37;;;;;;;8.18;5.85;;;;;;;5.10;100.00;98653.48;1716967;82;21059;-56
2022/11/01 00:56:05;;;;;;;11.83;6.08;;;;;;;5.10;100.00;98651.34;1712486;82;21010;-56
2022/11/01 00:58:31;;;;;;;12.95;6.22;;;;;;;5.09;100.00;98649.20;1713802;82;20941;-56
2022/11/01 01:00:58;;;;;;;8.40;6.15;;;;;;;5.06;100.00;98655.02;1714550;82;21171;-56
2022/11/01 01:03:25;;;;;;;15.85;6.90;;;;;;;5.04;100.00;98647.01;1711461;83;21625;-56
2022/11/01 01:05:52;;;;;;;8.93;6.95;;;;;;;5.04;100.00;98645.13;1713603;82;20928;-57
2022/11/01 01:08:20;;;;;;;10.68;6.65;;;;;;;5.02;100.00;98629.97;1715935;82;20936;-56
2022/11/01 01:10:47;;;;;;;7.75;6.40;;;;;;;5.01;100.00;98631.55;1715231;82;21075;-56
2022/11/01 01:13:17;;;;;;;14.58;7.10;;;;;;;5.00;100.00;98629.92;1716566;82;21289;-56
2022/11/01 01:23:37;;;;;;;9.40;7.20;;;;;;;4.96;100.00;98626.95;1714515;82;20955;-56
2022/11/01 01:26:07;;;;;;;9.95;7.22;;;;;;;4.98;100.00;98627.52;1711659;82;21246;-56
2022/11/01 01:28:35;;;;;;;10.60;7.97;;;;;;;4.97;100.00;98627.22;1712330;82;20923;-55
2022/11/01 01:31:07;;;;;;;11.22;7.62;;;;;;;4.95;100.00;98629.31;1713301;82;21425;-56
2022/11/01 01:33:33;;;;;;;8.90;8.00;;;;;;;4.95;100.00;98629.31;1712749;82;20908;-55
2022/11/01 01:36:04;;;;;;;8.68;7.80;;;;;;;4.95;100.00;98635.13;1715079;82;21129;-55
2022/11/01 01:38:32;;;;;;;11.25;8.05;;;;;;;4.94;100.00;98637.52;1713784;82;20880;-55
2022/11/01 01:41:54;;;;;;;10.08;8.13;;;;;;;4.92;100.00;98636.96;1714815;83;20923;-55
2022/11/01 01:43:40;;;;;;;10.10;8.53;;;;;;;4.92;100.00;98636.45;1709496;83;20892;-55
2022/11/01 01:46:09;;;;;;;11.80;8.93;;;;;;;4.93;100.00;98631.41;1712190;82;21054;-55
2022/11/01 01:48:39;;;;;;;9.98;8.38;;;;;;;4.90;100.00;98633.20;1716798;82;20932;-55
2022/11/01 01:51:09;;;;;;;10.70;8.18;;;;;;;4.82;100.00;98628.29;1713214;82;21088;-55
2022/11/01 01:53:41;;;;;;;9.70;7.28;;;;;;;4.70;100.00;98636.81;1714284;83;21487;-55
2022/11/01 01:56:14;;;;;;;13.32;8.75;;;;;;;4.59;100.00;98620.42;1712245;82;21274;-56
2022/11/01 01:58:54;;;;;;;19.30;9.90;;;;;;;4.51;100.00;98618.14;1713577;82;20909;-55
2022/11/01 02:01:20;;;;;;;16.15;8.95;;;;;;;4.42;100.00;98622.20;1714001;82;21424;-55
2022/11/01 02:03:47;;;;;;;12.20;9.25;;;;;;;4.33;100.00;98618.31;1708716;82;21128;-55
2022/11/01 02:06:16;;;;;;;10.68;8.98;;;;;;;4.25;100.00;98621.32;1716442;82;20988;-55
2022/11/01 02:08:52;;;;;;;11.93;9.28;;;;;;;4.20;100.00;98623.34;1708688;82;21444;-55
2022/11/01 02:11:21;;;;;;;13.28;8.45;;;;;;;4.18;100.00;98617.99;1713925;83;21011;-55
2022/11/01 02:13:49;;;;;;;11.22;8.88;;;;;;;4.22;100.00;98621.78;1713035;82;20927;-55
2022/11/01 02:16:46;;;;;;;11.10;9.58;;;;;;;4.26;100.00;98618.97;1711544;82;21201;-55
2022/11/01 02:20:02;;;;;;;11.75;10.50;;;;;;;4.29;100.00;98621.94;1716359;82;20908;-55
2022/11/01 02:23:17;;;;;;;12.30;9.75;;;;;;;4.27;100.00;98619.23;1713811;82;20869;-55
2022/11/01 02:26:17;;;;;;;11.95;9.73;;;;;;;4.23;100.00;98618.91;1710573;82;21455;-55
2022/11/01 02:29:35;;;;;;;11.10;9.05;;;;;;;4.17;100.00;98623.81;1714153;82;21329;-56
2022/11/01 02:32:11;;;;;;;14.25;11.43;;;;;;;4.11;100.00;98620.78;1715523;82;21113;-55
2022/11/01 02:34:48;;;;;;;14.87;11.85;;;;;;;4.05;100.00;98618.53;1706389;82;20907;-56
2022/11/01 02:37:42;;;;;;;15.85;11.68;;;;;;;4.01;100.00;98621.37;1712956;82;21578;-56
2022/11/01 02:40:17;;;;;;;14.63;10.40;;;;;;;3.98;100.00;98620.50;1711491;82;21030;-57
2022/11/01 02:42:45;;;;;;;13.80;9.68;;;;;;;3.98;100.00;98615.20;1667688;82;21019;-57
2022/11/01 02:45:27;;;;;;;14.55;11.88;;;;;;;3.96;100.00;98605.86;1713991;82;21259;-55
2022/11/01 02:47:59;;;;;;;15.25;11.88;;;;;;;3.95;100.00;98605.08;1714255;83;20999;-56
2022/11/01 02:50:43;;;;;;;14.35;11.25;;;;;;;3.95;100.00;98613.03;1696812;82;20915;-56
2022/11/01 02:53:09;;;;;;;16.70;10.65;;;;;;;3.97;100.00;98611.47;1715001;83;21495;-57
2022/11/01 02:55:36;;;;;;;16.00;11.12;;;;;;;4.00;100.00;98619.74;1714582;82;20935;-56
2022/11/01 02:58:14;;;;;;;13.90;11.40;;;;;;;4.02;100.00;98611.06;1715454;82;21109;-56
2022/11/01 03:00:42;;;;;;;15.00;12.07;;;;;;;4.08;100.00;98614.61;1715279;83;21119;-57
2022/11/01 03:03:17;;;;;;;15.68;11.25;;;;;;;4.11;100.00;98607.01;1712700;82;21001;-57
2022/11/01 03:05:59;;;;;;;16.45;11.80;;;;;;;4.12;100.00;98601.97;1714558;82;21122;-57
2022/11/01 03:08:39;;;;;;;12.65;10.48;;;;;;;4.15;100.00;98606.82;1715356;83;21007;-56
2022/11/01 03:11:15;;;;;;;16.75;11.10;;;;;;;4.17;100.00;98599.95;1716579;82;21919;-56
2022/11/01 03:14:28;;;;;;;13.13;10.75;;;;;;;4.16;100.00;98595.70;1708879;83;21479;-57
2022/11/01 03:17:10;;;;;;;17.60;11.00;;;;;;;4.20;100.00;98600.81;1715312;82;20936;-55
2022/11/01 03:20:06;;;;;;;14.15;11.10;;;;;;;4.21;100.00;98597.64;1716588;82;20988;-56
2022/11/01 03:22:55;;;;;;;14.30;9.93;;;;;;;4.22;100.00;98596.59;1713485;82;20888;-57
2022/11/01 03:25:42;;;;;;;12.13;9.78;;;;;;;4.22;100.00;98592.61;1714861;82;21155;-55
2022/11/01 03:28:27;;;;;;;12.13;10.20;;;;;;;4.22;100.00;98596.59;1715468;82;20900;-56
2022/11/01 03:31:05;;;;;;;14.45;10.65;;;;;;;4.22;100.00;98597.91;1714776;82;20979;-56
2022/11/01 03:33:33;;;;;;;14.55;10.90;;;;;;;4.19;100.00;98594.42;1715115;82;20940;-55
2022/11/01 03:36:03;;;;;;;11.50;9.53;;;;;;;4.21;100.00;98598.97;1712894;82;20983;-55
2022/11/01 03:38:35;;;;;;;13.68;10.08;;;;;;;4.22;100.00;98605.36;1713114;82;21271;-55
2022/11/01 03:41:03;;;;;;;12.47;10.03;;;;;;;4.21;100.00;98597.64;1711839;82;21427;-55
2022/11/01 03:43:31;;;;;;;17.75;10.05;;;;;;;4.25;100.00;98601.43;1713851;82;20869;-55
2022/11/01 03:45:58;;;;;;;12.70;10.00;;;;;;;4.25;100.00;98596.13;1714352;82;20944;-55
2022/11/01 03:48:24;;;;;;;12.07;9.80;;;;;;;4.25;100.00;98588.98;1711812;82;21475;-55
2022/11/01 03:50:55;;;;;;;12.10;9.28;;;;;;;4.26;100.00;98593.77;1714240;83;21116;-55
2022/11/01 03:53:22;;;;;;;13.05;10.48;;;;;;;4.21;100.00;98587.04;1712957;82;20944;-55
2022/11/01 03:55:50;;;;;;;11.00;9.58;;;;;;;4.15;100.00;98588.26;1708465;82;20924;-55
2022/11/01 03:58:17;;;;;;;11.70;9.85;;;;;;;4.13;100.00;98588.20;1712499;82;21032;-55
2022/11/01 04:00:44;;;;;;;13.13;10.23;;;;;;;4.07;100.00;98584.63;1714582;82;20860;-55
2022/11/01 04:03:12;;;;;;;11.95;10.13;;;;;;;4.03;100.00;98588.80;1709597;82;21070;-55
2022/11/01 04:05:40;;;;;;;12.43;9.95;;;;;;;4.03;100.00;98584.83;1714842;82;21530;-56
2022/11/01 04:08:09;;;;;;;16.45;10.32;;;;;;;4.05;100.00;98582.73;1715761;82;20991;-55
2022/11/01 04:10:38;;;;;;;14.47;11.00;;;;;;;4.05;100.00;98582.73;1713070;82;20951;-55
2022/11/01 04:13:04;;;;;;;13.25;10.10;;;;;;;4.02;100.00;98571.30;1714121;82;20904;-55
2022/11/01 04:21:19;;;;;;;16.25;10.88;;;;;;;4.03;100.00;98574.22;1714039;82;20924;-55
2022/11/01 04:23:46;;;;;;;13.60;11.08;;;;;;;4.02;100.00;98571.30;1709239;82;20912;-55
2022/11/01 04:26:17;;;;;;;14.35;10.93;;;;;;;4.01;100.00;98567.54;1711718;82;20884;-55
2022/11/01 04:28:55;;;;;;;13.13;10.03;;;;;;;3.99;100.00;98568.30;1716005;83;21026;-55
2022/11/01 04:31:14;;;;;;;20.25;11.95;;;;;;;3.95;100.00;98562.67;1711600;82;20920;-55
2022/11/01 04:33:41;;;;;;;12.85;11.38;;;;;;;3.96;100.00;98564.27;1715815;82;20904;-55
2022/11/01 04:36:09;;;;;;;16.82;12.03;;;;;;;3.98;100.00;98560.08;1715442;82;20987;-55
2022/11/01 04:38:36;;;;;;;13.98;11.78;;;;;;;3.97;100.00;98565.08;1713969;82;20974;-55
2022/11/01 04:41:04;;;;;;;14.68;10.90;;;;;;;3.97;100.00;98565.08;1713615;83;22064;-55
2022/11/01 04:43:31;;;;;;;14.35;11.40;;;;;;;3.95;100.00;98561.34;1714698;82;21416;-55
2022/11/01 04:45:57;;;;;;;15.20;11.85;;;;;;;3.93;100.00;98559.42;1712207;82;20967;-55
2022/11/01 04:48:26;;;;;;;16.25;11.90;;;;;;;3.91;100.00;98549.58;1713416;82;21583;-55
2022/11/01 04:50:54;;;;;;;15.20;12.25;;;;;;;3.94;100.00;98550.45;1715112;82;20991;-55
2022/11/01 04:53:20;;;;;;;16.27;12.78;;;;;;;3.95;100.00;98549.42;1714118;82;21214;-55
2022/11/01 04:55:47;;;;;;;23.92;18.48;;;;;;;3.97;100.00;98547.84;1714741;82;21399;-55
2022/11/01 04:58:13;;;;;;;19.23;15.68;;;;;;;3.98;100.00;98551.58;1709182;83;20860;-55
2022/11/01 05:00:42;;;;;;;17.25;14.13;;;;;;;3.99;100.00;98549.23;1714306;82;20940;-55
2022/11/01 05:03:09;;;;;;;19.00;14.87;;;;;;;4.02;100.00;98552.75;1712747;82;20987;-55
2022/11/01 05:05:37;;;;;;;22.17;14.73;;;;;;;4.04;100.00;98550.66;1680438;83;21491;-55
2022/11/01 05:08:09;;;;;;;22.42;15.58;;;;;;;4.04;100.00;98551.98;1705194;83;20935;-55
2022/11/01 05:10:40;;;;;;;24.02;18.00;;;;;;;4.06;100.00;98544.60;1707706;83;20908;-56
2022/11/01 05:13:09;;;;;;;20.50;15.00;;;;;;;4.08;100.00;98550.98;1713535;82;20999;-56
2022/11/01 05:15:36;;;;;;;16.97;13.72;;;;;;;4.05;100.00;98552.26;1712463;82;21542;-56
2022/11/01 05:18:04;;;;;;;17.30;14.18;;;;;;;4.05;100.00;98544.30;1715203;82;21456;-56
2022/11/01 05:20:33;;;;;;;16.75;12.78;;;;;;;4.04;100.00;98544.55;1713106;82;20992;-56
2022/11/01 05:23:01;;;;;;;21.05;11.70;;;;;;;4.07;100.00;98548.06;1712764;82;21459;-56
2022/11/01 05:25:28;;;;;;;15.95;11.83;;;;;;;4.08;100.00;98547.81;1711646;82;21421;-56
2022/11/01 05:28:04;;;;;;;102.65;55.43;;;;;;;4.09;100.00;98548.12;1712386;82;20983;-56
2022/11/01 05:30:31;;;;;;;36.65;25.82;;;;;;;4.12;100.00;98550.28;1713600;82;21238;-56
2022/11/01 05:32:59;;;;;;;47.35;40.50;;;;;;;4.13;100.00;98548.44;1708534;83;21515;-56
2022/11/01 05:35:27;;;;;;;23.18;17.77;;;;;;;4.14;100.00;98556.14;1713606;82;21358;-56
2022/11/01 05:37:54;;;;;;;18.90;13.58;;;;;;;4.15;100.00;98554.30;1713042;83;21457;-56
2022/11/01 05:40:22;;;;;;;16.62;12.23;;;;;;;4.18;100.00;98562.31;1713827;83;20947;-56
2022/11/01 05:42:49;;;;;;;17.02;13.28;;;;;;;4.20;100.00;98560.23;1713832;82;21934;-56
2022/11/01 05:45:17;;;;;;;20.17;14.68;;;;;;;4.24;100.00;98561.39;1714734;82;20904;-56
2022/11/01 05:50:18;;;;;;;17.52;13.30;;;;;;;4.31;100.00;98558.08;1714002;82;20967;-56
2022/11/01 05:52:44;;;;;;;24.72;14.98;;;;;;;4.34;100.00;98558.39;1718831;82;21515;-56
2022/11/01 05:55:11;;;;;;;26.35;18.05;;;;;;;4.39;100.00;98555.03;1721640;82;21082;-56
2022/11/01 05:57:39;;;;;;;18.65;13.95;;;;;;;4.46;100.00;98554.37;1713579;83;20952;-56
2022/11/01 06:00:10;;;;;;;19.77;14.65;;;;;;;4.53;100.00;98551.05;1707463;83;20956;-56
2022/11/01 06:02:40;;;;;;;26.23;17.40;;;;;;;4.55;100.00;98551.61;1712824;83;20965;-56
2022/11/01 06:05:08;;;;;;;21.05;13.70;;;;;;;4.56;100.00;98554.56;1712283;83;21032;-56
2022/11/01 06:07:36;;;;;;;26.05;16.70;;;;;;;4.62;100.00;98541.66;1708396;83;21130;-56
2022/11/01 06:10:04;;;;;;;19.60;14.30;;;;;;;4.71;100.00;98542.91;1691947;83;21071;-57
2022/11/01 06:12:32;;;;;;;27.85;15.68;;;;;;;4.77;100.00;98543.27;1692454;82;21511;-58
2022/11/01 06:15:00;;;;;;;33.90;18.40;;;;;;;4.82;100.00;98542.03;1690009;83;20960;-57
2022/11/01 06:17:28;;;;;;;26.82;17.67;;;;;;;4.90;100.00;98542.16;1713168;83;20936;-57
2022/11/01 06:19:54;;;;;;;41.92;25.00;;;;;;;5.01;100.00;98541.27;1702453;83;21252;-57
2022/11/01 06:22:22;;;;;;;26.05;18.98;;;;;;;5.10;100.00;98539.30;1702254;83;20969;-58
2022/11/01 06:24:51;;;;;;;28.20;19.48;;;;;;;5.19;100.00;98534.38;1661338;85;20943;-58
2022/11/01 06:27:22;;;;;;;22.00;15.63;;;;;;;5.29;100.00;98535.36;1703770;83;20987;-58
2022/11/01 06:29:49;;;;;;;24.02;18.30;;;;;;;5.40;100.00;98529.14;1686160;84;21034;-58
2022/11/01 06:32:16;;;;;;;27.20;18.45;;;;;;;5.51;100.00;98528.23;1658287;85;21933;-58
2022/11/01 06:34:43;;;;;;;24.75;16.48;;;;;;;5.63;100.00;98529.45;1684638;83;20967;-58
2022/11/01 06:37:10;;;;;;;21.87;15.10;;;;;;;5.73;100.00;98527.45;1705688;83;21441;-58
2022/11/01 06:39:43;;;;;;;16.75;12.65;;;;;;;5.82;100.00;98520.66;1703759;82;21012;-57
2022/11/01 06:42:18;;;;;;;18.67;12.23;;;;;;;5.91;100.00;98519.23;1732405;81;20982;-57
2022/11/01 06:44:46;;;;;;;17.30;11.50;;;;;;;6.01;100.00;98515.34;1676502;84;21752;-57
2022/11/01 06:47:12;;;;;;;16.85;10.58;;;;;;;6.11;100.00;98514.14;1683857;83;21080;-57
2022/11/01 06:49:39;;;;;;;13.72;10.70;;;;;;;6.23;100.00;98514.81;1681539;84;20913;-57
2022/11/01 06:52:07;;;;;;;14.20;10.55;;;;;;;6.33;100.00;98517.59;1705643;82;21700;-57
2022/11/01 06:54:34;;;;;;;15.18;10.20;;;;;;;6.41;100.00;98517.65;1699727;83;21043;-57
2022/11/01 06:57:02;;;;;;;13.18;9.43;;;;;;;6.50;100.00;98517.50;1704700;83;21123;-57
2022/11/01 06:59:29;;;;;;;13.18;9.98;;;;;;;6.57;100.00;98502.91;1697475;81;21127;-56
2022/11/01 07:01:56;;;;;;;13.58;10.15;;;;;;;6.66;100.00;98504.61;1711792;82;21113;-57
2022/11/01 07:04:22;;;;;;;14.07;10.38;;;;;;;6.73;100.00;98497.22;1698660;82;21072;-57
2022/11/01 07:06:49;;;;;;;12.63;9.35;;;;;;;6.78;100.00;98494.05;1715943;81;21048;-57
2022/11/01 07:09:17;;;;;;;13.85;9.83;;;;;;;6.85;100.00;98484.55;1698140;82;22008;-57
2022/11/01 07:11:43;;;;;;;12.50;9.08;;;;;;;6.93;100.00;98483.25;1728826;82;21060;-56
2022/11/01 07:14:10;;;;;;;14.45;9.78;;;;;;;6.99;100.00;98478.27;1709217;83;21488;-56
2022/11/01 07:16:37;;;;;;;13.18;9.60;;;;;;;7.02;100.00;98471.10;1704264;84;21341;-57
2022/11/01 07:19:04;;;;;;;16.37;10.18;;;;;;;7.10;100.00;98476.75;1691892;83;20993;-56
2022/11/01 07:21:31;;;;;;;15.75;9.40;;;;;;;7.19;100.00;98481.05;1686820;83;21129;-57
2022/11/01 07:24:02;;;;;;;15.00;9.55;;;;;;;7.27;99.82;98480.59;1693544;84;21436;-56
2022/11/01 07:26:32;;;;;;;16.73;10.13;;;;;;;7.35;99.55;98479.56;1700346;83;20955;-57
2022/11/01 07:29:00;;;;;;;10.95;9.43;;;;;;;7.44;99.09;98473.23;1708292;83;21083;-56
2022/11/01 07:31:29;;;;;;;14.23;10.30;;;;;;;7.51;99.01;98471.14;1698830;83;21135;-55
2022/11/01 07:33:57;;;;;;;16.55;9.93;;;;;;;7.62;98.62;98468.80;1709392;83;21159;-55
2022/11/01 07:36:24;;;;;;;13.18;9.75;;;;;;;7.73;97.90;98467.77;1693608;84;20944;-55
2022/11/01 07:38:51;;;;;;;13.53;8.98;;;;;;;7.79;97.59;98460.08;1704443;84;21455;-57
2022/11/01 07:41:18;;;;;;;14.40;9.25;;;;;;;7.92;97.56;98463.59;1703131;82;21166;-57
2022/11/01 07:43:46;;;;;;;12.70;8.75;;;;;;;8.05;97.63;98460.97;1693860;83;21503;-57
2022/11/01 07:46:12;;;;;;;13.90;9.05;;;;;;;8.20;97.34;98456.47;1681830;82;21274;-56
2022/11/01 07:48:39;;;;;;;14.30;9.35;;;;;;;8.38;97.05;98454.41;1694892;82;21009;-56
2022/11/01 07:51:08;;;;;;;12.47;8.10;;;;;;;8.53;96.54;98451.73;1688611;83;20966;-56
2022/11/01 07:53:36;;;;;;;14.30;8.20;;;;;;;8.69;96.20;98448.03;1670012;84;21111;-56
2022/11/01 07:56:06;;;;;;;14.85;8.40;;;;;;;8.88;95.74;98446.41;1691618;83;21588;-56
2022/11/01 07:58:36;;;;;;;13.08;7.80;;;;;;;9.05;94.94;98433.58;1700993;83;21543;-57
2022/11/01 08:01:07;;;;;;;12.75;8.58;;;;;;;9.22;94.17;98427.41;1698475;81;20978;-55
2022/11/01 08:03:35;;;;;;;13.50;8.60;;;;;;;9.37;93.47;98427.35;1707554;81;21029;-55
2022/11/01 08:06:05;;;;;;;14.75;8.63;;;;;;;9.54;92.90;98423.83;1701769;82;21526;-57
2022/11/01 08:08:33;;;;;;;;;;;;;;;9.68;91.79;98421.37;1686662;82;36067;-57
2022/11/01 08:11:01;;;;;;;11.93;7.85;;;;;;;9.79;90.78;98417.59;1664163;83;21860;-56
2022/11/01 08:13:28;;;;;;;13.05;7.70;;;;;;;9.90;89.99;98413.79;1713205;81;21094;-56
2022/11/01 08:16:02;;;;;;;12.40;7.67;;;;;;;10.01;89.61;98410.54;1724620;82;20895;-56
2022/11/01 08:18:37;;;;;;;14.23;7.70;;;;;;;10.14;89.14;98414.77;1684449;82;21065;-57
2022/11/01 08:21:06;;;;;;;13.43;7.90;;;;;;;10.27;88.43;98410.66;1706114;82;21131;-56
2022/11/01 08:23:36;;;;;;;10.60;7.65;;;;;;;10.41;87.90;98414.31;1692703;83;21100;-56
2022/11/01 08:26:06;;;;;;;13.53;7.78;;;;;;;10.51;86.61;98410.22;1702140;83;21002;-56
2022/11/01 08:28:33;;;;;;;10.35;7.10;;;;;;;10.57;86.21;98412.34;1693719;82;21028;-58
2022/11/01 08:31:07;;;;;;;10.00;7.08;;;;;;;10.62;85.36;98406.38;1715264;82;21040;-63
2022/11/01 08:33:34;;;;;;;13.70;8.25;;;;;;;10.70;84.79;98399.63;1708954;81;21181;-56
2022/11/01 08:36:01;;;;;;;14.80;7.80;;;;;;;10.75;84.74;98401.73;1689812;81;22016;-57
2022/11/01 08:38:28;;;;;;;11.33;7.95;;;;;;;10.89;84.85;98398.66;1704172;82;21190;-57
2022/11/01 08:40:55;;;;;;;10.05;7.58;;;;;;;11.06;84.09;98400.11;1691854;81;21099;-57
2022/11/01 08:43:22;;;;;;;14.15;8.50;;;;;;;11.18;83.69;98403.20;1700065;81;21036;-57
2022/11/01 08:45:49;;;;;;;12.65;8.10;;;;;;;11.26;83.04;98405.28;1697924;83;20957;-57
2022/11/01 08:48:16;;;;;;;12.28;7.60;;;;;;;11.37;82.74;98400.06;1711735;82;21277;-57
2022/11/01 08:50:42;;;;;;;13.62;8.25;;;;;;;11.49;82.35;98392.41;1725009;81;21465;-57
2022/11/01 08:53:12;;;;;;;13.90;8.28;;;;;;;11.60;81.50;98385.84;1701662;80;21032;-57
2022/11/01 08:55:39;;;;;;;20.32;8.55;;;;;;;11.67;81.02;98395.67;1706859;81;21047;-57
2022/11/01 08:58:08;;;;;;;13.13;8.40;;;;;;;11.72;80.34;98388.13;1688830;83;20996;-56
2022/11/01 09:00:36;;;;;;;12.40;8.43;;;;;;;11.77;80.07;98390.22;1697370;83;21837;-55
2022/11/01 09:03:05;;;;;;;18.62;9.43;;;;;;;11.83;79.40;98390.40;1701177;82;20904;-56
2022/11/01 09:05:35;;;;;;;19.52;8.55;;;;;;;11.89;79.49;98397.31;1682005;83;21086;-59
2022/11/01 09:08:06;;;;;;;19.20;9.10;;;;;;;11.97;79.19;98385.11;1697624;84;21070;-57
2022/11/01 09:10:34;;;;;;;19.70;8.43;;;;;;;12.07;78.76;98385.78;1697671;83;21294;-57
2022/11/01 09:13:07;;;;;;;14.93;9.33;;;;;;;12.20;78.69;98381.59;1703220;82;21031;-56
2022/11/01 09:15:39;;;;;;;14.45;8.83;;;;;;;12.33;78.68;98373.58;1699459;82;21158;-56
2022/11/01 09:18:07;;;;;;;14.33;8.48;;;;;;;12.47;77.92;98371.48;1699542;82;21112;-57
2022/11/01 09:20:36;;;;;;;14.68;8.18;;;;;;;12.60;77.15;98361.34;1725909;82;21526;-57
2022/11/01 09:23:05;;;;;;;13.60;9.00;;;;;;;12.68;76.32;98362.00;1693649;82;21121;-56
2022/11/01 09:25:33;;;;;;;21.02;9.43;;;;;;;12.69;75.64;98355.55;1709032;82;21298;-56
2022/11/01 09:28:03;;;;;;;17.70;9.38;;;;;;;12.71;76.11;98349.33;1700310;81;21070;-57
2022/11/01 09:30:31;;;;;;;19.42;9.45;;;;;;;12.81;76.24;98355.88;1690960;83;21091;-57
2022/11/01 09:32:58;;;;;;;11.80;8.30;;;;;;;12.90;75.81;98351.41;1707238;81;21083;-57
2022/11/01 09:35:26;;;;;;;18.00;8.65;;;;;;;12.98;75.62;98338.08;1732061;81;21194;-56
2022/11/01 09:38:00;;;;;;;15.20;7.87;;;;;;;13.11;75.37;98334.38;1742721;80;21232;-56
2022/11/01 09:40:34;;;;;;;16.87;8.75;;;;;;;13.24;75.01;98326.31;1730268;81;21608;-56
2022/11/01 09:43:05;;;;;;;13.08;8.65;;;;;;;13.38;74.89;98331.14;1721527;80;21185;-57
2022/11/01 09:45:40;;;;;;;18.77;8.65;;;;;;;13.55;74.63;98323.27;1738131;80;21073;-56
2022/11/01 09:48:13;;;;;;;16.82;8.78;;;;;;;13.72;73.34;98319.95;1731331;80;21091;-56
2022/11/01 09:50:43;;;;;;;17.85;9.13;;;;;;;13.78;72.94;98311.22;1691755;82;21180;-56
2022/11/01 09:53:23;;;;;;;15.03;8.63;;;;;;;13.79;72.98;98311.45;1717716;80;21108;-57
2022/11/01 09:56:09;;;;;;;13.38;8.75;;;;;;;13.81;72.56;98313.28;1713585;81;21620;-57
2022/11/01 09:58:51;;;;;;;;;;;;;;;13.85;72.42;98305.65;1717411;81;21140;-55
2022/11/01 10:01:42;;;;;;;20.27;8.80;;;;;;;13.83;71.88;98295.73;1707176;82;20120;-56
2022/11/01 10:04:47;;;;;;;14.35;7.95;;;;;;;13.82;72.33;98303.58;1702899;83;21717;-56
2022/11/01 10:07:33;;;;;;;20.27;8.70;;;;;;;13.84;72.62;98299.23;1684420;82;21548;-55
2022/11/01 10:10:27;;;;;;;15.38;8.43;;;;;;;13.92;72.41;98295.83;1690673;83;20991;-55
2022/11/01 10:13:02;;;;;;;16.70;8.73;;;;;;;14.00;71.72;98288.35;1701085;82;21153;-56
2022/11/01 10:16:01;;;;;;;15.18;7.80;;;;;;;14.06;71.13;98285.80;1714354;82;20930;-58
2022/11/01 10:18:42;;;;;;;14.00;7.45;;;;;;;14.09;71.18;98286.52;1706771;82;20944;-56
2022/11/01 10:21:14;;;;;;;18.12;7.60;;;;;;;14.16;70.48;98290.92;1707286;82;21067;-55
2022/11/01 10:23:52;;;;;;;21.30;8.60;;;;;;;14.18;70.35;98286.83;1727070;81;21026;-56
2022/11/01 10:26:28;;;;;;;14.87;8.78;;;;;;;14.23;70.37;98291.30;1739321;82;21029;-56
2022/11/01 10:29:07;;;;;;;;;;;;;;;14.31;69.73;98287.37;1730633;82;21039;-56
2022/11/01 10:31:38;;;;;;;12.73;7.80;;;;;;;14.39;69.82;98285.27;1672796;83;21261;-58
2022/11/01 10:34:16;;;;;;;14.25;8.05;;;;;;;14.46;69.06;98278.66;1691338;83;21141;-58
2022/11/01 10:36:45;;;;;;;17.00;7.58;;;;;;;14.52;68.60;98267.44;1701203;82;21177;-55
2022/11/01 10:39:38;;;;;;;14.98;8.25;;;;;;;14.62;68.13;98277.96;1693848;83;21137;-58
2022/11/01 10:42:11;;;;;;;13.75;8.08;;;;;;;14.73;66.73;98271.19;1692952;83;21448;-57
2022/11/01 10:44:43;;;;;;;14.07;7.78;;;;;;;14.82;67.13;98269.88;1724210;80;21118;-57
2022/11/01 10:47:17;;;;;;;16.52;8.28;;;;;;;14.97;67.24;98265.42;1709263;84;21056;-57
2022/11/01 10:50:06;;;;;;;13.98;7.90;;;;;;;15.06;66.73;98265.70;1699248;84;21503;-57
2022/11/01 10:52:54;;;;;;;13.32;7.62;;;;;;;15.13;66.08;98259.84;1705977;83;21055;-58
2022/11/01 10:55:43;;;;;;;14.23;7.90;;;;;;;15.21;64.87;98257.73;1672047;83;21017;-57
2022/11/01 10:58:44;;;;;;;18.87;8.83;;;;;;;15.20;64.37;98258.03;1680222;82;22051;-57
2022/11/01 11:01:15;;;;;;;10.90;8.15;;;;;;;15.11;64.11;98250.47;1678718;84;21047;-58
2022/11/01 11:03:42;;;;;;;13.00;7.97;;;;;;;14.97;64.13;98249.25;1672712;84;21440;-57
2022/11/01 11:06:10;;;;;;;14.10;8.18;;;;;;;14.83;64.14;98252.05;1698806;83;21032;-57
2022/11/01 11:08:39;;;;;;;19.98;8.95;;;;;;;14.76;64.53;98251.70;1669459;83;21579;-56
2022/11/01 11:11:14;;;;;;;11.90;7.65;;;;;;;14.78;65.22;98254.89;1691496;83;21258;-56
2022/11/01 11:13:45;;;;;;;16.23;8.05;;;;;;;14.91;65.35;98240.48;1689666;84;20916;-58
2022/11/01 11:16:32;;;;;;;17.98;8.68;;;;;;;15.11;65.41;98239.69;1680509;84;21108;-57
2022/11/01 11:19:04;;;;;;;18.30;7.75;;;;;;;15.34;64.54;98241.16;1699517;83;21012;-60
2022/11/01 11:21:33;;;;;;;13.03;7.92;;;;;;;15.55;63.60;98233.53;1697814;81;21089;-57
2022/11/01 11:24:01;;;;;;;13.98;8.25;;;;;;;15.75;63.49;98225.37;1682095;83;21058;-56
2022/11/01 11:26:36;;;;;;;10.70;7.12;;;;;;;15.87;60.85;98215.28;1697771;81;21554;-56
2022/11/01 11:29:03;;;;;;;13.45;7.37;;;;;;;15.90;61.39;98223.52;1692949;82;21451;-56
2022/11/01 11:31:43;;;;;;;12.47;7.12;;;;;;;15.84;61.82;98215.36;1698158;81;21093;-57
2022/11/01 11:34:29;;;;;;;11.78;7.47;;;;;;;15.69;62.24;98220.67;1694496;82;21106;-58
2022/11/01 11:36:57;;;;;;;18.45;7.87;;;;;;;15.56;61.99;98212.73;1715020;81;21405;-57
2022/11/01 11:39:35;;;;;;;15.58;8.68;;;;;;;15.51;62.18;98212.88;1699369;81;21089;-58
2022/11/01 11:42:20;;;;;;;12.10;7.62;;;;;;;15.54;62.34;98220.36;1693281;82;21595;-57
2022/11/01 11:44:54;;;;;;;14.20;8.45;;;;;;;15.68;62.13;98212.35;1677567;82;21098;-57
2022/11/01 11:47:27;;;;;;;16.65;9.00;;;;;;;15.86;62.39;98211.77;1701585;82;21486;-55
2022/11/01 11:49:56;;;;;;;15.65;9.30;;;;;;;16.02;61.55;98215.58;1703988;82;21358;-57
2022/11/01 11:52:28;;;;;;;12.07;8.10;;;;;;;16.12;61.02;98210.39;1699478;81;21110;-59
2022/11/01 11:54:55;;;;;;;13.18;8.48;;;;;;;16.11;59.79;98205.55;1697105;81;21197;-56
2022/11/01 11:57:25;;;;;;;18.92;8.83;;;;;;;16.03;60.27;98209.62;1713424;82;21555;-62
2022/11/01 12:00:04;;;;;;;14.15;8.10;;;;;;;15.98;60.90;98201.67;1706580;82;20959;-56
2022/11/01 12:02:36;;;;;;;13.85;8.35;;;;;;;16.04;61.25;98200.41;1724876;81;21198;-56